Time;durP1;ratioP1;P1;durP2;ratioP2;P2;SDS_P1;SDS_P2;PMS_P1;PMS_P2;Temp;Humidity;BMP_temperature;BMP_pressure;BME280_temperature;BME280_humidity;BME280_pressure;Samples;Min_cycle;Max_cycle;Signal;HPM_P1;HPM_P2
2022/11/24 00:01:39;;;;;;;2.30;2.10;;;0.50;97.30;;;;;;5016860;28;20199;-85
2022/11/24 00:04:05;;;;;;;1.80;1.70;;;0.50;97.30;;;;;;5016923;28;20207;-85
2022/11/24 00:06:33;;;;;;;3.30;3.20;;;0.50;97.30;;;;;;5016815;28;20178;-86
2022/11/24 00:09:01;;;;;;;2.57;2.37;;;0.50;97.30;;;;;;5016904;28;20882;-86
2022/11/24 00:11:29;;;;;;;1.70;1.67;;;0.50;97.30;;;;;;5034475;28;20407;-86
2022/11/24 00:13:56;;;;;;;1.93;1.83;;;0.50;97.30;;;;;;5016923;28;20514;-86
2022/11/24 00:16:27;;;;;;;2.13;1.93;;;0.50;97.30;;;;;;5034552;28;20408;-89
2022/11/24 00:18:55;;;;;;;4.50;2.27;;;0.50;97.30;;;;;;5015910;28;20439;-86
2022/11/24 00:21:21;;;;;;;3.37;2.07;;;0.50;97.30;;;;;;5016556;28;20422;-85
2022/11/24 00:23:48;;;;;;;4.57;2.50;;;0.40;97.30;;;;;;5016331;28;20566;-86
2022/11/24 00:26:16;;;;;;;1.93;1.30;;;0.40;97.30;;;;;;5016551;28;20426;-86
2022/11/24 00:28:43;;;;;;;2.93;2.73;;;0.40;97.30;;;;;;5034133;28;20522;-86
2022/11/24 00:31:15;;;;;;;2.23;2.10;;;0.40;97.30;;;;;;5016408;28;20922;-85
2022/11/24 00:33:40;;;;;;;27.83;3.97;;;0.40;97.30;;;;;;5016274;28;20411;-85
2022/11/24 00:36:06;;;;;;;6.43;3.23;;;0.40;97.30;;;;;;5016337;28;20518;-85
2022/11/24 00:38:31;;;;;;;3.33;3.13;;;0.40;97.30;;;;;;5016564;28;20231;-86
2022/11/24 00:40:57;;;;;;;3.63;3.20;;;0.30;97.30;;;;;;5033925;28;20181;-86
2022/11/24 00:43:22;;;;;;;3.70;2.70;;;0.30;97.30;;;;;;5016214;28;20218;-86
2022/11/24 00:45:48;;;;;;;1.80;1.70;;;0.30;97.30;;;;;;5016304;28;20172;-86
2022/11/24 00:48:14;;;;;;;4.50;2.20;;;0.40;97.30;;;;;;5016078;28;20204;-86
2022/11/24 00:50:39;;;;;;;1.97;1.87;;;0.40;97.30;;;;;;5015922;28;20176;-85
2022/11/24 00:53:05;;;;;;;5.60;3.30;;;0.40;97.30;;;;;;5033780;28;20177;-86
2022/11/24 00:55:30;;;;;;;2.83;2.63;;;0.40;97.30;;;;;;5015906;28;20176;-85
2022/11/24 00:57:56;;;;;;;3.17;2.30;;;0.40;97.30;;;;;;5015953;28;20207;-86
2022/11/24 01:00:21;;;;;;;1.60;1.50;;;0.40;97.30;;;;;;5033698;28;20255;-83
2022/11/24 01:02:47;;;;;;;4.33;3.97;;;0.40;97.30;;;;;;5015535;28;20686;-83
2022/11/24 01:05:12;;;;;;;1.80;1.70;;;0.40;97.30;;;;;;5033459;28;20544;-85
2022/11/24 01:07:38;;;;;;;4.33;3.17;;;0.40;97.30;;;;;;5015448;28;20192;-85
2022/11/24 01:10:04;;;;;;;2.27;1.93;;;0.40;97.30;;;;;;5033568;28;20194;-85
2022/11/24 01:12:30;;;;;;;2.63;2.43;;;0.40;97.30;;;;;;5032344;28;20215;-85
2022/11/24 01:14:57;;;;;;;1.83;1.73;;;0.30;97.30;;;;;;5016182;28;20787;-84
2022/11/24 01:17:23;;;;;;;6.73;1.63;;;0.30;97.30;;;;;;5015539;28;20431;-86
2022/11/24 01:19:49;;;;;;;1.67;1.63;;;0.30;97.30;;;;;;5015060;28;20467;-86
2022/11/24 01:22:15;;;;;;;2.63;2.43;;;0.20;97.30;;;;;;5015574;28;20655;-86
2022/11/24 01:24:40;;;;;;;2.63;2.43;;;0.20;97.30;;;;;;5015376;28;20426;-85
2022/11/24 01:27:06;;;;;;;1.70;1.63;;;0.20;97.30;;;;;;5015386;28;20177;-86
2022/11/24 01:29:32;;;;;;;4.17;3.60;;;0.20;97.30;;;;;;5015428;28;20172;-86
2022/11/24 01:31:58;;;;;;;3.50;3.30;;;0.20;97.30;;;;;;5015392;28;20416;-85
2022/11/24 01:34:23;;;;;;;4.50;4.10;;;0.20;97.30;;;;;;5015422;28;20203;-85
2022/11/24 01:36:49;;;;;;;1.60;1.50;;;0.20;97.30;;;;;;5015456;28;20172;-86
2022/11/24 01:39:14;;;;;;;3.30;3.20;;;0.20;97.30;;;;;;5032916;28;20191;-87
2022/11/24 01:41:40;;;;;;;2.70;2.50;;;0.20;97.30;;;;;;5015388;28;20670;-86
2022/11/24 01:44:26;;;;;;;1.37;1.27;;;0.20;97.30;;;;;;5015385;28;20706;-82
2022/11/24 01:47:14;;;;;;;6.00;2.43;;;0.20;97.30;;;;;;5033067;28;20164;-85
2022/11/24 01:49:53;;;;;;;3.33;2.13;;;0.20;97.30;;;;;;5015054;28;20442;-86
2022/11/24 01:52:26;;;;;;;2.13;1.97;;;0.20;97.30;;;;;;5015424;28;20526;-85
2022/11/24 01:54:55;;;;;;;2.57;2.37;;;0.20;97.30;;;;;;5015176;28;20429;-86
2022/11/24 01:57:28;;;;;;;2.50;1.77;;;0.20;97.30;;;;;;5022529;28;20460;-85
2022/11/24 02:00:00;;;;;;;2.20;1.83;;;0.20;97.30;;;;;;5051886;28;20422;-85
2022/11/24 02:02:28;;;;;;;5.17;2.73;;;0.20;97.30;;;;;;5054864;28;20449;-86
2022/11/24 02:04:59;;;;;;;3.80;3.60;;;0.30;97.30;;;;;;5055042;28;20500;-86
2022/11/24 02:07:25;;;;;;;1.90;1.80;;;0.30;97.30;;;;;;5054526;28;20475;-83
2022/11/24 02:09:55;;;;;;;3.00;1.97;;;0.30;97.30;;;;;;5054805;28;20410;-86
2022/11/24 02:12:23;;;;;;;1.37;1.30;;;0.40;97.30;;;;;;5054730;28;20424;-87
2022/11/24 02:14:50;;;;;;;4.37;2.97;;;0.40;97.30;;;;;;5055148;28;20462;-88
2022/11/24 02:17:16;;;;;;;2.63;2.40;;;0.40;97.30;;;;;;5054314;28;20417;-86
2022/11/24 02:19:53;;;;;;;1.60;1.50;;;0.30;97.30;;;;;;5073233;28;20606;-85
2022/11/24 02:22:22;;;;;;;4.23;2.47;;;0.30;97.30;;;;;;5054813;28;20217;-83
2022/11/24 02:25:26;;;;;;;7.20;3.80;;;0.40;97.30;;;;;;5058653;28;20830;-85
2022/11/24 02:27:53;;;;;;;2.83;1.60;;;0.40;97.30;;;;;;5058771;28;20452;-85
2022/11/24 02:30:19;;;;;;;3.30;3.10;;;0.40;97.30;;;;;;5058191;28;20788;-84
2022/11/24 02:32:44;;;;;;;7.03;2.37;;;0.40;97.30;;;;;;5076373;28;20405;-88
2022/11/24 02:35:10;;;;;;;1.50;1.40;;;0.50;97.30;;;;;;5058605;28;20630;-87
2022/11/24 02:37:36;;;;;;;1.93;1.83;;;0.50;97.30;;;;;;5076371;28;20203;-84
2022/11/24 02:40:02;;;;;;;2.33;2.07;;;0.50;97.30;;;;;;5058081;28;21035;-86
2022/11/24 02:42:32;;;;;;;1.50;1.40;;;0.50;97.30;;;;;;5057719;28;20253;-87
2022/11/24 02:44:59;;;;;;;1.20;1.10;;;0.50;97.30;;;;;;5058367;28;20409;-86
2022/11/24 02:47:25;;;;;;;3.00;2.60;;;0.50;97.30;;;;;;5075927;28;20428;-86
2022/11/24 02:49:51;;;;;;;1.50;1.40;;;0.60;97.30;;;;;;5058208;28;20417;-87
2022/11/24 02:52:17;;;;;;;8.97;3.80;;;0.60;97.30;;;;;;5057956;28;20907;-85
2022/11/24 02:54:42;;;;;;;2.43;2.23;;;0.70;97.30;;;;;;5058369;28;20171;-87
2022/11/24 02:57:08;;;;;;;2.30;1.83;;;0.70;97.30;;;;;;5058155;28;20492;-87
2022/11/24 02:59:34;;;;;;;1.93;1.83;;;0.70;97.30;;;;;;5058091;28;20184;-86
2022/11/24 03:01:59;;;;;;;2.07;1.80;;;0.70;97.30;;;;;;5076168;28;20496;-87
2022/11/24 03:04:26;;;;;;;2.07;1.93;;;0.70;97.30;;;;;;5058416;28;20206;-87
2022/11/24 03:06:52;;;;;;;1.67;1.57;;;0.80;97.30;;;;;;5057893;28;20511;-86
2022/11/24 03:09:17;;;;;;;14.03;3.27;;;0.70;97.30;;;;;;5057937;28;20195;-87
2022/11/24 03:11:43;;;;;;;2.77;2.57;;;0.70;97.30;;;;;;5058064;28;20182;-87
2022/11/24 03:14:08;;;;;;;2.87;1.53;;;0.70;97.30;;;;;;5058124;28;20167;-86
2022/11/24 03:16:34;;;;;;;2.03;1.93;;;0.80;97.30;;;;;;5047486;28;20172;-86
2022/11/24 03:19:00;;;;;;;1.50;1.40;;;0.90;97.30;;;;;;5037510;28;20238;-86
2022/11/24 03:21:25;;;;;;;7.27;4.30;;;0.90;97.30;;;;;;5037470;28;20195;-85
2022/11/24 03:23:52;;;;;;;2.23;1.77;;;0.90;97.30;;;;;;5037358;28;20468;-85
2022/11/24 03:26:19;;;;;;;3.13;2.30;;;1.00;97.30;;;;;;5037588;28;20191;-87
2022/11/24 03:28:45;;;;;;;2.90;2.70;;;1.00;97.30;;;;;;5037108;28;20953;-87
2022/11/24 03:31:11;;;;;;;3.00;2.80;;;1.10;97.30;;;;;;5055070;28;20409;-86
2022/11/24 03:33:37;;;;;;;2.20;1.93;;;1.20;97.30;;;;;;5037548;28;20281;-87
2022/11/24 03:36:04;;;;;;;6.37;5.13;;;1.30;97.30;;;;;;5036225;28;20454;-86
2022/11/24 03:38:29;;;;;;;4.67;3.13;;;1.40;97.30;;;;;;5037323;28;20644;-87
2022/11/24 03:40:55;;;;;;;2.93;2.53;;;1.50;97.30;;;;;;5037338;28;20525;-87
2022/11/24 03:43:21;;;;;;;1.80;1.60;;;1.60;97.30;;;;;;5036975;28;20616;-86
2022/11/24 03:45:47;;;;;;;3.93;2.50;;;1.60;97.30;;;;;;5037210;28;20175;-86
2022/11/24 03:48:19;;;;;;;2.83;1.77;;;1.70;97.30;;;;;;5036799;28;20663;-86
2022/11/24 03:50:55;;;;;;;3.50;3.37;;;1.70;97.30;;;;;;5036958;28;20453;-86
2022/11/24 03:53:22;;;;;;;1.93;1.80;;;1.70;97.30;;;;;;5031300;28;20431;-86
2022/11/24 03:55:48;;;;;;;2.90;1.77;;;1.70;97.30;;;;;;5016957;28;20418;-86
2022/11/24 03:58:14;;;;;;;2.53;2.33;;;1.70;97.30;;;;;;5017135;28;20967;-86
2022/11/24 04:00:39;;;;;;;3.23;3.03;;;1.70;97.30;;;;;;5016976;28;20232;-85
2022/11/24 04:03:05;;;;;;;1.93;1.83;;;1.80;97.30;;;;;;5016910;28;20295;-86
2022/11/24 04:05:32;;;;;;;2.07;1.80;;;1.80;97.30;;;;;;5017164;28;20211;-86
2022/11/24 04:08:01;;;;;;;4.53;3.87;;;1.90;97.30;;;;;;5016572;28;20189;-87
2022/11/24 04:10:28;;;;;;;3.70;2.80;;;2.00;97.30;;;;;;5016706;28;20422;-87
2022/11/24 04:12:53;;;;;;;5.53;2.83;;;2.10;97.30;;;;;;5016865;28;20414;-87
2022/11/24 04:15:20;;;;;;;2.80;1.67;;;2.20;97.30;;;;;;5016615;28;20451;-87
2022/11/24 04:17:47;;;;;;;2.23;2.03;;;2.30;97.30;;;;;;5015894;28;20196;-85
2022/11/24 04:20:13;;;;;;;2.90;2.80;;;2.40;97.30;;;;;;5015987;28;20486;-87
2022/11/24 04:22:38;;;;;;;2.33;2.00;;;2.40;97.30;;;;;;5016659;28;20831;-87
2022/11/24 04:25:05;;;;;;;2.70;2.50;;;2.50;97.30;;;;;;5034324;28;20173;-87
2022/11/24 04:27:35;;;;;;;3.67;2.97;;;2.50;97.30;;;;;;5016757;28;20262;-87
2022/11/24 04:30:03;;;;;;;1.97;1.87;;;2.60;97.30;;;;;;5016518;28;20434;-87
2022/11/24 04:32:28;;;;;;;2.20;2.03;;;2.60;97.30;;;;;;5016564;28;20426;-87
2022/11/24 04:34:54;;;;;;;10.53;3.20;;;2.70;97.30;;;;;;5016669;28;20419;-87
2022/11/24 04:37:19;;;;;;;3.43;1.80;;;2.70;97.30;;;;;;5016459;28;20703;-87
2022/11/24 04:39:45;;;;;;;1.90;1.80;;;2.80;97.30;;;;;;5016798;28;20180;-87
2022/11/24 04:42:11;;;;;;;4.00;3.80;;;2.80;97.30;;;;;;5016052;28;20188;-87
2022/11/24 04:44:37;;;;;;;9.03;3.47;;;2.80;97.30;;;;;;5016600;28;20177;-87
2022/11/24 04:47:03;;;;;;;1.67;1.50;;;2.80;97.30;;;;;;5016080;28;20414;-87
2022/11/24 04:49:29;;;;;;;3.90;3.23;;;2.80;97.30;;;;;;5016323;28;20177;-87
2022/11/24 04:51:54;;;;;;;3.10;2.83;;;2.80;97.30;;;;;;5016021;28;20469;-86
2022/11/24 04:54:20;;;;;;;1.67;1.40;;;2.80;97.30;;;;;;5016116;28;20183;-87
2022/11/24 04:56:50;;;;;;;2.57;2.37;;;2.70;97.30;;;;;;5016170;28;20185;-87
2022/11/24 04:59:16;;;;;;;1.67;1.57;;;2.70;97.30;;;;;;5015689;28;20219;-87
2022/11/24 05:01:43;;;;;;;2.93;2.73;;;2.70;97.30;;;;;;5033434;28;20910;-87
2022/11/24 05:04:10;;;;;;;1.60;1.50;;;2.80;97.30;;;;;;5015740;28;20204;-87
2022/11/24 05:06:36;;;;;;;9.10;3.40;;;2.70;97.30;;;;;;5015913;28;20501;-86
2022/11/24 05:09:02;;;;;;;3.03;2.57;;;2.70;97.30;;;;;;5015716;28;20529;-86
2022/11/24 05:11:28;;;;;;;2.57;2.37;;;2.80;97.30;;;;;;5015757;28;20920;-87
2022/11/24 05:13:53;;;;;;;3.30;3.10;;;2.80;97.30;;;;;;5015650;28;20414;-86
2022/11/24 05:16:19;;;;;;;3.43;1.80;;;2.90;97.30;;;;;;5033439;28;20267;-86
2022/11/24 05:18:44;;;;;;;4.87;4.60;;;3.00;97.30;;;;;;5015693;28;20231;-87
2022/11/24 05:21:10;;;;;;;6.77;5.00;;;3.10;97.30;;;;;;5025677;28;20256;-86
2022/11/24 05:23:35;;;;;;;1.50;1.40;;;3.20;97.30;;;;;;5035214;28;20211;-85
2022/11/24 05:26:02;;;;;;;2.67;2.43;;;3.30;97.30;;;;;;5035690;28;20203;-86
2022/11/24 05:28:28;;;;;;;2.97;2.40;;;3.30;97.30;;;;;;5035217;28;20815;-86
2022/11/24 05:30:57;;;;;;;3.03;2.83;;;3.40;97.30;;;;;;5035486;28;20406;-87
2022/11/24 05:33:22;;;;;;;9.77;3.60;;;3.40;97.30;;;;;;5035159;28;20426;-87
2022/11/24 05:35:49;;;;;;;3.07;2.57;;;3.50;97.30;;;;;;5035325;28;20418;-87
2022/11/24 05:38:16;;;;;;;5.03;2.60;;;3.60;97.30;;;;;;5033560;28;20254;-86
2022/11/24 05:40:42;;;;;;;2.23;2.03;;;3.60;97.30;;;;;;5033491;28;20506;-87
2022/11/24 05:43:14;;;;;;;4.87;2.27;;;3.60;97.30;;;;;;5034773;28;20544;-86
2022/11/24 05:45:40;;;;;;;4.20;2.57;;;3.70;97.30;;;;;;5053069;28;20406;-87
2022/11/24 05:48:09;;;;;;;5.50;3.63;;;3.70;97.30;;;;;;5034648;28;20469;-86
2022/11/24 05:50:35;;;;;;;1.80;1.70;;;3.70;97.30;;;;;;5034806;28;20509;-87
2022/11/24 05:53:05;;;;;;;11.73;1.67;;;3.80;97.30;;;;;;5035131;28;20449;-87
2022/11/24 05:55:32;;;;;;;3.23;3.03;;;3.80;97.30;;;;;;5035250;28;20415;-87
2022/11/24 05:57:59;;;;;;;8.13;5.73;;;3.80;97.30;;;;;;5034766;28;20437;-86
2022/11/24 06:00:25;;;;;;;6.77;3.90;;;3.80;97.30;;;;;;5034844;28;20421;-86
2022/11/24 06:02:50;;;;;;;5.43;2.80;;;3.80;97.30;;;;;;5035437;28;20461;-87
2022/11/24 06:05:16;;;;;;;3.93;3.40;;;3.80;97.30;;;;;;5035290;28;20406;-86
2022/11/24 06:07:42;;;;;;;4.30;2.47;;;3.80;97.30;;;;;;5034892;28;20199;-87
2022/11/24 06:10:08;;;;;;;3.77;2.90;;;3.80;97.30;;;;;;5035109;28;20187;-87
2022/11/24 06:12:34;;;;;;;3.07;1.43;;;3.80;97.30;;;;;;5034869;28;20184;-87
2022/11/24 06:15:00;;;;;;;9.63;2.50;;;3.90;97.30;;;;;;5052469;28;20406;-86
2022/11/24 06:17:26;;;;;;;3.50;3.30;;;3.90;97.30;;;;;;5052678;28;20444;-87
2022/11/24 06:19:51;;;;;;;3.80;2.40;;;4.00;97.30;;;;;;5034203;28;20235;-86
2022/11/24 06:22:18;;;;;;;2.27;2.07;;;4.00;97.30;;;;;;5034634;28;20176;-86
2022/11/24 06:24:45;;;;;;;2.83;2.67;;;4.00;97.30;;;;;;5034461;28;20184;-85
2022/11/24 06:27:11;;;;;;;4.53;1.80;;;4.10;97.30;;;;;;5052485;28;20975;-86
2022/11/24 06:29:37;;;;;;;6.03;2.80;;;4.10;97.30;;;;;;5034312;28;20502;-87
2022/11/24 06:32:03;;;;;;;2.53;1.60;;;4.00;97.30;;;;;;5034166;28;20410;-87
2022/11/24 06:34:29;;;;;;;6.20;2.80;;;4.00;97.30;;;;;;5034059;28;20916;-87
2022/11/24 06:36:54;;;;;;;2.47;2.00;;;4.00;97.30;;;;;;5029185;28;20419;-86
2022/11/24 06:39:20;;;;;;;4.27;2.33;;;3.90;97.30;;;;;;5022985;28;20207;-86
2022/11/24 06:41:48;;;;;;;2.53;2.07;;;3.90;97.30;;;;;;5012794;28;20184;-87
2022/11/24 06:44:13;;;;;;;4.83;2.50;;;3.90;97.30;;;;;;5012640;28;20572;-85
2022/11/24 06:46:39;;;;;;;3.07;2.57;;;3.90;97.30;;;;;;5013105;28;20416;-86
2022/11/24 06:49:04;;;;;;;1.53;1.27;;;3.90;97.30;;;;;;5013241;28;20203;-85
2022/11/24 06:51:30;;;;;;;1.83;1.73;;;3.90;97.30;;;;;;5012915;28;20176;-86
2022/11/24 06:53:55;;;;;;;3.97;3.77;;;3.90;97.30;;;;;;5013362;28;20180;-85
2022/11/24 06:56:21;;;;;;;3.93;2.60;;;3.90;97.30;;;;;;5012950;28;20247;-86
2022/11/24 06:58:49;;;;;;;2.10;1.97;;;3.90;97.30;;;;;;5012978;28;20213;-86
2022/11/24 07:01:19;;;;;;;4.43;3.23;;;3.90;97.30;;;;;;5013150;28;20621;-86
2022/11/24 07:03:46;;;;;;;3.97;3.77;;;3.90;97.30;;;;;;5013138;28;20521;-86
2022/11/24 07:06:12;;;;;;;3.23;2.83;;;3.90;97.30;;;;;;5035482;28;20422;-84
2022/11/24 07:08:38;;;;;;;3.60;2.30;;;3.90;97.30;;;;;;5019761;28;20453;-85
2022/11/24 07:11:05;;;;;;;4.87;3.00;;;4.00;97.30;;;;;;5037640;28;20180;-85
2022/11/24 07:13:31;;;;;;;4.60;3.67;;;4.00;97.30;;;;;;5022669;28;20188;-85
2022/11/24 07:15:56;;;;;;;8.03;3.57;;;4.10;97.30;;;;;;5044388;28;20414;-85
2022/11/24 07:18:22;;;;;;;2.00;1.90;;;4.10;97.30;;;;;;5024056;28;20224;-85
2022/11/24 07:20:47;;;;;;;3.43;3.23;;;4.10;97.30;;;;;;5021177;28;20226;-85
2022/11/24 07:23:13;;;;;;;4.23;3.27;;;4.20;97.30;;;;;;5026643;28;20192;-85
2022/11/24 07:25:38;;;;;;;5.10;3.07;;;4.20;97.30;;;;;;5035988;28;20176;-85
2022/11/24 07:28:04;;;;;;;2.47;2.27;;;4.30;97.30;;;;;;5053439;28;20210;-85
2022/11/24 07:30:30;;;;;;;4.03;3.37;;;4.30;97.30;;;;;;5035794;28;20665;-85
2022/11/24 07:33:02;;;;;;;2.30;1.97;;;4.30;97.30;;;;;;5035879;28;20238;-85
2022/11/24 07:35:28;;;;;;;2.13;1.97;;;4.40;97.30;;;;;;5035493;28;20598;-85
2022/11/24 07:37:57;;;;;;;2.03;1.90;;;4.40;97.30;;;;;;5026233;28;20439;-85
2022/11/24 07:40:24;;;;;;;2.67;2.37;;;4.50;97.30;;;;;;5030729;28;20450;-85
2022/11/24 07:42:50;;;;;;;2.23;1.63;;;4.50;97.30;;;;;;5035918;28;20457;-84
2022/11/24 07:45:16;;;;;;;2.27;2.10;;;4.60;97.30;;;;;;5036372;28;20832;-84
2022/11/24 07:47:41;;;;;;;2.30;2.20;;;4.70;97.30;;;;;;5037634;28;20757;-84
2022/11/24 07:50:11;;;;;;;1.90;1.80;;;4.80;97.30;;;;;;5037338;28;20168;-84
2022/11/24 07:52:37;;;;;;;3.90;2.40;;;4.90;97.30;;;;;;5037476;28;20176;-83
2022/11/24 07:55:03;;;;;;;10.83;4.73;;;5.00;97.30;;;;;;5037504;28;20415;-83
2022/11/24 07:57:29;;;;;;;5.83;3.57;;;5.20;97.30;;;;;;5037588;28;20242;-84
2022/11/24 07:59:55;;;;;;;8.93;3.67;;;5.20;97.30;;;;;;5036386;28;20509;-85
2022/11/24 08:02:21;;;;;;;5.07;2.03;;;5.50;97.30;;;;;;5053196;28;20172;-85
2022/11/24 08:04:46;;;;;;;6.43;1.43;;;5.80;97.30;;;;;;5036172;28;20425;-85
2022/11/24 08:17:22;;;;;;;2.97;2.83;;;6.10;97.30;;;;;;5049412;28;20872;-84
2022/11/24 08:19:48;;;;;;;4.37;3.50;;;6.10;97.30;;;;;;5032808;28;20461;-83
2022/11/24 08:22:13;;;;;;;6.73;3.20;;;6.10;97.30;;;;;;5067054;28;20429;-84
2022/11/24 08:24:45;;;;;;;3.67;3.53;;;6.10;97.30;;;;;;5073253;28;20175;-83
2022/11/24 08:27:10;;;;;;;5.40;3.70;;;6.10;97.30;;;;;;5057137;28;20711;-84
2022/11/24 08:29:36;;;;;;;2.23;2.03;;;6.10;97.30;;;;;;5074417;28;20410;-84
2022/11/24 08:32:02;;;;;;;5.20;2.47;;;6.20;97.30;;;;;;5054897;28;20422;-84
2022/11/24 08:34:27;;;;;;;13.90;3.37;;;6.20;97.30;;;;;;5055376;28;20186;-85
2022/11/24 08:36:53;;;;;;;1.77;1.73;;;6.20;97.30;;;;;;5072976;28;20178;-84
2022/11/24 08:39:19;;;;;;;1.67;1.63;;;6.30;97.30;;;;;;5054578;28;20576;-83
2022/11/24 08:41:45;;;;;;;3.40;3.20;;;6.50;97.30;;;;;;5054759;28;20197;-84
2022/11/24 08:44:14;;;;;;;1.77;1.73;;;6.60;97.30;;;;;;5072809;28;20468;-80
2022/11/24 08:46:40;;;;;;;3.47;1.80;;;6.70;97.30;;;;;;5052819;28;20834;-83
2022/11/24 08:49:06;;;;;;;3.10;2.60;;;6.80;97.30;;;;;;5054738;28;20490;-85
2022/11/24 08:51:31;;;;;;;1.83;1.73;;;6.80;97.30;;;;;;5072830;28;20171;-84
2022/11/24 08:53:59;;;;;;;1.70;1.60;;;6.90;97.30;;;;;;5055613;28;20423;-85
2022/11/24 08:56:27;;;;;;;2.97;1.93;;;7.10;97.30;;;;;;5055096;28;20183;-85
2022/11/24 08:58:54;;;;;;;1.67;1.57;;;7.20;97.30;;;;;;5053730;28;20445;-84
2022/11/24 09:01:19;;;;;;;6.90;3.70;;;7.30;97.30;;;;;;5052372;28;20425;-85
2022/11/24 09:03:47;;;;;;;2.50;2.07;;;7.30;97.30;;;;;;5052336;28;20467;-85
2022/11/24 09:06:13;;;;;;;4.50;1.70;;;7.40;97.30;;;;;;5059225;28;20172;-85
2022/11/24 09:08:38;;;;;;;11.13;5.10;;;7.40;97.30;;;;;;5037829;28;20438;-86
2022/11/24 09:11:06;;;;;;;6.57;2.50;;;7.50;97.30;;;;;;5032645;28;20204;-82
2022/11/24 09:13:32;;;;;;;2.00;1.90;;;7.50;97.30;;;;;;5044854;28;20184;-85
2022/11/24 09:16:05;;;;;;;2.40;1.60;;;7.50;97.30;;;;;;5050269;28;20421;-85
2022/11/24 09:18:31;;;;;;;1.53;1.43;;;7.40;97.30;;;;;;5034686;28;20207;-83
2022/11/24 09:21:13;;;;;;;3.23;1.70;;;7.40;97.30;;;;;;5044073;28;20452;-84
2022/11/24 09:23:40;;;;;;;2.00;1.90;;;7.40;97.30;;;;;;5064383;28;20453;-84
2022/11/24 09:26:17;;;;;;;1.87;1.77;;;7.40;97.30;;;;;;5062175;28;20416;-84
2022/11/24 09:28:44;;;;;;;2.03;1.90;;;7.40;97.30;;;;;;5040974;28;20840;-85
2022/11/24 09:31:12;;;;;;;3.00;2.60;;;7.40;97.30;;;;;;5039942;28;20435;-85
2022/11/24 09:33:39;;;;;;;3.47;2.53;;;7.40;97.30;;;;;;5045690;28;20414;-85
2022/11/24 09:36:06;;;;;;;1.47;1.37;;;7.50;97.30;;;;;;5050669;28;20417;-84
2022/11/24 09:38:32;;;;;;;48.63;2.50;;;7.50;97.30;;;;;;5045828;28;20438;-84
2022/11/24 09:41:49;;;;;;;3.13;2.23;;;7.50;97.30;;;;;;5052331;28;20765;-84
2022/11/24 09:44:21;;;;;;;2.90;1.40;;;7.50;97.30;;;;;;5039919;28;20456;-85
2022/11/24 09:47:11;;;;;;;5.60;3.53;;;7.40;97.30;;;;;;5039676;28;20867;-84
2022/11/24 09:49:45;;;;;;;2.47;2.10;;;7.40;97.30;;;;;;5048259;28;20642;-88
2022/11/24 09:52:17;;;;;;;1.90;1.80;;;7.40;97.30;;;;;;5070171;28;20492;-86
2022/11/24 09:55:19;;;;;;;1.23;1.13;;;7.40;97.30;;;;;;5068906;28;20453;-87
2022/11/24 09:57:51;;;;;;;1.00;0.90;;;7.40;97.30;;;;;;5037273;28;20444;-85
2022/11/24 10:00:17;;;;;;;4.00;2.20;;;7.40;97.30;;;;;;5055518;28;20418;-84
2022/11/24 10:02:47;;;;;;;4.40;3.43;;;7.40;97.30;;;;;;5055474;28;20469;-84
2022/11/24 10:05:12;;;;;;;2.10;1.33;;;7.40;97.30;;;;;;5069370;28;20467;-85
2022/11/24 10:07:58;;;;;;;1.87;1.60;;;7.50;97.30;;;;;;5041744;28;20438;-84
2022/11/24 10:11:01;;;;;;;7.97;2.43;;;7.50;97.30;;;;;;5042955;28;20584;-84
2022/11/24 10:14:14;;;;;;;9.70;3.97;;;7.50;97.30;;;;;;5035776;28;20937;-84
2022/11/24 10:17:07;;;;;;;1.70;1.57;;;7.60;97.30;;;;;;5006388;28;20677;-85
2022/11/24 10:19:45;;;;;;;1.37;1.30;;;7.60;97.30;;;;;;5049299;28;20464;-84
2022/11/24 10:22:24;;;;;;;1.60;1.50;;;7.60;97.30;;;;;;5040690;28;20475;-84
2022/11/24 10:25:08;;;;;;;2.43;2.23;;;7.70;97.30;;;;;;5045312;28;20449;-84
2022/11/24 10:27:40;;;;;;;1.57;1.47;;;7.70;97.30;;;;;;5060886;28;20548;-84
2022/11/24 10:30:20;;;;;;;2.60;1.70;;;7.70;97.30;;;;;;5042302;28;20403;-85
2022/11/24 10:33:08;;;;;;;2.00;1.90;;;7.80;97.30;;;;;;5044626;28;20413;-85
2022/11/24 10:36:01;;;;;;;3.40;1.43;;;7.80;97.30;;;;;;5053458;28;20445;-85
2022/11/24 10:38:45;;;;;;;3.73;1.87;;;7.80;97.30;;;;;;5035668;28;20792;-84
2022/11/24 10:41:45;;;;;;;12.83;3.23;;;7.80;97.30;;;;;;5043403;28;20777;-84
2022/11/24 10:44:14;;;;;;;4.20;2.93;;;7.90;97.30;;;;;;5046203;28;20449;-85
2022/11/24 10:46:40;;;;;;;5.73;1.80;;;7.90;97.30;;;;;;5047153;28;20409;-85
2022/11/24 10:49:11;;;;;;;1.30;1.20;;;7.90;97.30;;;;;;5043973;28;20465;-84
2022/11/24 10:51:53;;;;;;;1.20;1.10;;;7.90;97.30;;;;;;5064626;28;20433;-85
2022/11/24 10:54:21;;;;;;;4.70;2.90;;;7.90;97.30;;;;;;5047384;28;20424;-86
2022/11/24 10:56:50;;;;;;;4.07;3.43;;;8.00;97.30;;;;;;5046047;28;20438;-86
2022/11/24 10:59:30;;;;;;;5.80;2.60;;;8.00;97.30;;;;;;5044627;28;20426;-86
2022/11/24 11:01:56;;;;;;;5.60;2.80;;;8.00;97.30;;;;;;5065461;28;20965;-85
2022/11/24 11:04:27;;;;;;;1.57;1.50;;;8.00;97.30;;;;;;5068416;28;20449;-85
2022/11/24 11:07:17;;;;;;;22.27;2.67;;;8.00;97.30;;;;;;5055857;28;20199;-86
2022/11/24 11:09:43;;;;;;;2.50;2.30;;;8.10;97.30;;;;;;5056770;28;20935;-86
2022/11/24 11:12:26;;;;;;;2.07;1.90;;;8.10;97.30;;;;;;5049715;28;20445;-83
2022/11/24 11:14:51;;;;;;;42.57;2.87;;;8.10;97.30;;;;;;5049635;28;20417;-86
2022/11/24 11:17:37;;;;;;;5.33;1.73;;;8.10;97.30;;;;;;5057998;28;20410;-85
2022/11/24 11:20:09;;;;;;;8.73;2.50;;;8.10;97.30;;;;;;5054318;28;20230;-85
2022/11/24 11:22:36;;;;;;;5.07;3.13;;;8.20;97.30;;;;;;5065832;28;20496;-85
2022/11/24 11:25:15;;;;;;;1.53;1.43;;;8.20;97.30;;;;;;5075325;28;20417;-86
2022/11/24 11:27:41;;;;;;;1.97;1.87;;;8.20;97.30;;;;;;5037661;28;20438;-86
2022/11/24 11:30:22;;;;;;;3.40;2.30;;;8.30;97.30;;;;;;5037880;28;20864;-86
2022/11/24 11:32:59;;;;;;;1.93;1.83;;;8.40;97.30;;;;;;5047336;28;20429;-85
2022/11/24 11:35:27;;;;;;;1.57;1.47;;;8.40;97.30;;;;;;5055606;28;20409;-85
2022/11/24 11:37:57;;;;;;;1.00;0.90;;;8.50;97.30;;;;;;5079331;28;20429;-84
2022/11/24 11:40:28;;;;;;;7.03;2.87;;;8.50;97.30;;;;;;5047572;28;20911;-84
2022/11/24 11:43:12;;;;;;;2.53;2.17;;;8.50;97.30;;;;;;5051374;28;20499;-86
2022/11/24 11:45:43;;;;;;;2.30;1.70;;;8.60;97.30;;;;;;5048483;28;20454;-85
2022/11/24 11:48:29;;;;;;;1.50;1.40;;;8.60;97.30;;;;;;5048680;28;20434;-85
2022/11/24 11:51:18;;;;;;;3.00;2.80;;;8.70;97.30;;;;;;5046324;28;20502;-85
2022/11/24 11:54:15;;;;;;;1.47;1.37;;;8.80;97.30;;;;;;5049560;28;20414;-85
2022/11/24 11:56:48;;;;;;;2.07;1.93;;;8.80;97.30;;;;;;5038097;28;20493;-86
2022/11/24 11:59:37;;;;;;;2.80;2.20;;;8.90;97.30;;;;;;5046106;28;20434;-85
2022/11/24 12:02:35;;;;;;;2.67;2.27;;;8.90;97.30;;;;;;5047337;28;20942;-85
2022/11/24 12:05:17;;;;;;;1.50;1.40;;;8.90;97.30;;;;;;5072461;28;20418;-86
2022/11/24 12:08:07;;;;;;;2.30;1.63;;;9.00;97.30;;;;;;5054691;28;20449;-85
2022/11/24 12:10:44;;;;;;;16.53;4.40;;;9.00;97.30;;;;;;5052403;28;20433;-86
2022/11/24 12:13:47;;;;;;;3.27;2.63;;;9.10;97.30;;;;;;5053801;28;20409;-86
2022/11/24 12:16:44;;;;;;;8.03;2.40;;;9.10;97.30;;;;;;5068549;28;20405;-86
2022/11/24 12:19:21;;;;;;;1.40;1.37;;;9.10;97.30;;;;;;5052816;28;20453;-86
2022/11/24 12:22:05;;;;;;;8.13;2.70;;;9.10;97.30;;;;;;5070818;28;20413;-86
2022/11/24 12:24:49;;;;;;;1.73;1.63;;;9.20;97.30;;;;;;5048730;28;20462;-86
2022/11/24 12:27:31;;;;;;;3.20;3.00;;;9.20;97.30;;;;;;5044352;28;20414;-86
2022/11/24 12:30:11;;;;;;;3.07;2.47;;;9.30;97.30;;;;;;5045230;28;20797;-86
2022/11/24 12:32:55;;;;;;;11.13;2.73;;;9.40;97.30;;;;;;5069137;28;20953;-86
2022/11/24 12:35:40;;;;;;;4.50;1.83;;;9.60;97.30;;;;;;5035353;28;20586;-86
2022/11/24 12:38:25;;;;;;;5.90;2.37;;;9.70;97.30;;;;;;5034234;28;20495;-86
2022/11/24 12:41:18;;;;;;;5.37;3.50;;;9.80;97.30;;;;;;5033625;28;20471;-86
2022/11/24 12:43:51;;;;;;;11.03;1.40;;;9.80;97.30;;;;;;5044337;28;20902;-86
2022/11/24 12:46:27;;;;;;;14.73;3.97;;;9.90;97.30;;;;;;5053886;28;20525;-86
2022/11/24 12:49:19;;;;;;;4.97;2.73;;;9.90;97.30;;;;;;5053560;28;20437;-86
2022/11/24 12:51:50;;;;;;;3.30;2.53;;;9.80;97.30;;;;;;5053649;28;20445;-86
2022/11/24 12:54:19;;;;;;;2.60;2.40;;;9.80;97.30;;;;;;5053210;28;20795;-86
2022/11/24 12:57:08;;;;;;;1.40;1.30;;;9.90;97.30;;;;;;5053495;28;20417;-86
2022/11/24 12:59:44;;;;;;;2.00;1.90;;;9.90;97.30;;;;;;5077478;28;20414;-86
2022/11/24 13:02:23;;;;;;;5.07;2.70;;;9.90;97.30;;;;;;5053755;28;20450;-86
2022/11/24 13:04:54;;;;;;;4.73;2.13;;;9.90;97.30;;;;;;5053437;28;20471;-86
2022/11/24 13:07:43;;;;;;;5.80;1.50;;;9.80;97.30;;;;;;5053514;28;20614;-85
2022/11/24 13:10:24;;;;;;;3.23;2.53;;;9.80;97.30;;;;;;5053486;28;20600;-85
2022/11/24 13:13:01;;;;;;;2.40;1.77;;;9.80;97.30;;;;;;5067998;28;20783;-86
2022/11/24 13:15:28;;;;;;;2.17;1.47;;;9.80;97.30;;;;;;5054102;28;21003;-86
2022/11/24 13:17:54;;;;;;;3.33;1.80;;;9.90;97.30;;;;;;5042118;28;20448;-86
2022/11/24 13:20:20;;;;;;;1.60;1.50;;;9.90;97.30;;;;;;5052816;28;20469;-85
2022/11/24 13:22:55;;;;;;;5.10;2.93;;;9.90;97.30;;;;;;5068918;28;20465;-85
2022/11/24 13:25:30;;;;;;;2.60;1.30;;;9.90;97.30;;;;;;5052903;28;20319;-85